Terminal Aerodrome Forecast
Issued by NWS Wilmington, NC

Home | Current Version | Previous Version | Text Only | Print | Product List | Glossary On
Versions: 1 2 3 4 5 6 7 8 9 10 11 12 13 14 15 16 17 18 19 20 21 22 23 24 25 26 27 28 29 30 31
061
FTUS42 KILM 062330
TAFILM
TAF
KILM 062330Z 0700/0724 30004KT P6SM SCT050 BKN100
     FM070600 30004KT P6SM SCT050 SCT100
     FM071200 28009KT P6SM SCT050 BKN100
     FM071700 29012KT P6SM SCT050=

USA.gov is the U.S. government's official web portal to all federal, state and local government web resources and services.